Time;durP1;ratioP1;P1;durP2;ratioP2;P2;SDS_P1;SDS_P2;PMS_P1;PMS_P2;Temp;Humidity;BMP_temperature;BMP_pressure;BME280_temperature;BME280_humidity;BME280_pressure;Samples;Min_cycle;Max_cycle;Signal;HPM_P1;HPM_P2
2023/08/26 00:02:09;;;;;;;;;;;26.90;53.30;;;;;;5037111;28;82414;-42
2023/08/26 00:04:34;;;;;;;;;;;26.90;53.30;;;;;;5039772;28;82527;-42
2023/08/26 00:07:00;;;;;;;;;;;26.90;53.20;;;;;;5037939;28;82038;-42
2023/08/26 00:09:26;;;;;;;;;;;26.90;53.20;;;;;;5035911;27;82363;-42
2023/08/26 00:11:52;;;;;;;;;;;26.80;53.20;;;;;;5038856;28;81296;-42
2023/08/26 00:14:18;;;;;;;;;;;26.90;53.90;;;;;;5034831;28;81998;-43
2023/08/26 00:16:43;;;;;;;;;;;26.90;53.30;;;;;;5038381;28;82398;-43
2023/08/26 00:19:09;;;;;;;;;;;26.90;53.20;;;;;;5035997;28;83797;-42
2023/08/26 00:21:34;;;;;;;;;;;26.80;53.30;;;;;;5037337;28;82066;-42
2023/08/26 00:24:00;;;;;;;;;;;26.80;53.20;;;;;;5037375;28;82398;-42
2023/08/26 00:26:25;;;;;;;;;;;26.80;53.30;;;;;;5038797;28;81921;-43
2023/08/26 00:28:51;;;;;;;;;;;26.80;53.20;;;;;;5039064;28;82570;-43
2023/08/26 00:31:16;;;;;;;;;;;26.80;53.30;;;;;;5034950;28;82579;-42
2023/08/26 00:33:42;;;;;;;;;;;26.80;53.30;;;;;;5038864;28;82039;-42
2023/08/26 00:36:07;;;;;;;;;;;26.80;53.40;;;;;;5036182;28;82439;-42
2023/08/26 00:38:33;;;;;;;;;;;26.70;53.30;;;;;;5037477;28;84209;-42
2023/08/26 00:40:58;;;;;;;;;;;26.80;53.30;;;;;;5036538;28;82093;-42
2023/08/26 00:43:26;;;;;;;;;;;26.70;53.30;;;;;;5035395;28;82877;-42
2023/08/26 00:45:51;;;;;;;;;;;26.70;53.40;;;;;;5037642;28;82924;-43
2023/08/26 00:48:18;;;;;;;;;;;26.70;53.30;;;;;;5038259;28;82054;-42
2023/08/26 00:50:44;;;;;;;;;;;26.70;53.30;;;;;;5038136;28;84151;-42
2023/08/26 00:53:10;;;;;;;;;;;26.70;53.40;;;;;;5035337;28;82045;-42
2023/08/26 00:55:37;;;;;;;;;;;26.60;53.40;;;;;;5037374;27;81961;-42
2023/08/26 00:58:04;;;;;;;;;;;26.60;53.30;;;;;;5035564;28;83292;-42
2023/08/26 01:00:29;;;;;;;;;;;26.60;53.30;;;;;;5036251;28;82055;-42
2023/08/26 01:02:55;;;;;;;;;;;26.60;53.30;;;;;;5037587;28;82114;-42
2023/08/26 01:05:21;;;;;;;;;;;26.60;53.30;;;;;;5035075;28;82842;-42
2023/08/26 01:07:46;;;;;;;;;;;26.60;53.40;;;;;;5037531;28;83310;-43
2023/08/26 01:10:12;;;;;;;;;;;26.60;53.40;;;;;;5036990;28;83584;-42
2023/08/26 01:12:42;;;;;;;;;;;26.60;54.00;;;;;;5037334;28;82281;-43
2023/08/26 01:15:09;;;;;;;;;;;26.60;53.40;;;;;;5034337;28;82465;-42
2023/08/26 01:17:35;;;;;;;;;;;26.50;53.30;;;;;;5035214;28;82136;-42
2023/08/26 01:20:01;;;;;;;;;;;26.50;53.30;;;;;;5037776;28;83160;-42
2023/08/26 01:22:28;;;;;;;;;;;26.50;53.30;;;;;;5034138;28;82462;-42
2023/08/26 01:24:54;;;;;;;;;;;26.50;53.30;;;;;;5036561;28;82744;-43
2023/08/26 01:27:20;;;;;;;;;;;26.50;53.30;;;;;;5035397;28;82095;-42
2023/08/26 01:29:45;;;;;;;;;;;26.50;53.30;;;;;;5038423;28;82415;-42
2023/08/26 01:32:29;;;;;;;;;;;26.50;53.30;;;;;;5035790;28;82937;-42
2023/08/26 01:34:56;;;;;;;;;;;26.40;53.20;;;;;;5032159;28;83397;-42
2023/08/26 01:37:23;;;;;;;;;;;26.40;53.30;;;;;;5036136;28;83194;-45
2023/08/26 01:39:50;;;;;;;;;;;26.50;53.40;;;;;;5036436;28;82049;-42
2023/08/26 01:42:18;;;;;;;;;;;26.40;53.30;;;;;;5034944;27;82326;-42
2023/08/26 01:44:44;;;;;;;;;;;26.40;53.40;;;;;;5029354;28;82954;-43
2023/08/26 01:47:10;;;;;;;;;;;26.40;53.30;;;;;;5036829;28;82076;-42
2023/08/26 01:49:35;;;;;;;;;;;26.40;53.40;;;;;;5036743;28;85606;-43
2023/08/26 01:52:01;;;;;;;;;;;26.30;53.30;;;;;;5037781;28;83779;-43
2023/08/26 01:54:26;;;;;;;;;;;26.30;53.40;;;;;;5036006;27;82656;-43
2023/08/26 01:56:52;;;;;;;;;;;26.30;53.40;;;;;;5035414;28;83546;-42
2023/08/26 01:59:17;;;;;;;;;;;26.30;53.40;;;;;;5032821;28;82054;-42
2023/08/26 02:01:43;;;;;;;;;;;26.30;53.40;;;;;;5034602;28;81969;-43
2023/08/26 02:04:08;;;;;;;;;;;26.30;53.40;;;;;;5037044;28;85156;-43
2023/08/26 02:06:34;;;;;;;;;;;26.30;53.40;;;;;;5033966;28;82101;-42
2023/08/26 02:08:59;;;;;;;;;;;26.30;53.40;;;;;;5036835;28;82604;-43
2023/08/26 02:11:25;;;;;;;;;;;26.30;53.40;;;;;;5034741;28;82851;-42
2023/08/26 02:13:50;;;;;;;;;;;26.30;54.00;;;;;;5038326;28;81260;-42
2023/08/26 02:16:16;;;;;;;;;;;26.30;53.50;;;;;;5035579;28;82250;-42
2023/08/26 02:18:41;;;;;;;;;;;26.20;53.40;;;;;;5035074;28;82607;-42
2023/08/26 02:21:08;;;;;;;;;;;26.20;53.40;;;;;;5035849;28;82958;-42
2023/08/26 02:23:34;;;;;;;;;;;26.20;53.40;;;;;;5033197;28;82240;-42
2023/08/26 02:25:59;;;;;;;;;;;26.10;53.40;;;;;;5037277;28;82117;-42
2023/08/26 02:28:25;;;;;;;;;;;26.20;53.40;;;;;;5032722;28;85907;-43
2023/08/26 02:30:50;;;;;;;;;;;26.20;53.40;;;;;;5035872;28;82655;-42
2023/08/26 02:33:16;;;;;;;;;;;26.20;53.50;;;;;;5034891;28;82370;-42
2023/08/26 02:35:45;;;;;;;;;;;26.10;53.40;;;;;;5037828;28;82022;-42
2023/08/26 02:38:11;;;;;;;;;;;26.10;53.40;;;;;;5037026;28;81294;-42
2023/08/26 02:40:36;;;;;;;;;;;26.10;53.40;;;;;;5033830;28;81995;-42
2023/08/26 02:43:02;;;;;;;;;;;26.00;53.40;;;;;;5036779;28;83204;-47
2023/08/26 02:45:27;;;;;;;;;;;26.10;53.50;;;;;;5034442;28;83073;-42
2023/08/26 02:47:53;;;;;;;;;;;26.00;53.40;;;;;;5036300;27;82502;-42
2023/08/26 02:50:18;;;;;;;;;;;26.10;53.40;;;;;;5034495;28;83051;-42
2023/08/26 02:52:44;;;;;;;;;;;26.00;53.40;;;;;;5034949;28;82067;-42
2023/08/26 02:55:09;;;;;;;;;;;26.00;53.40;;;;;;5035587;28;82464;-43
2023/08/26 02:57:35;;;;;;;;;;;26.00;53.40;;;;;;5036342;28;84443;-42
2023/08/26 03:00:00;;;;;;;;;;;26.00;53.40;;;;;;5037421;27;82552;-42
2023/08/26 03:02:26;;;;;;;;;;;26.00;53.50;;;;;;5036980;28;81433;-42
2023/08/26 03:04:51;;;;;;;;;;;25.90;53.40;;;;;;5040188;28;82031;-42
2023/08/26 03:07:17;;;;;;;;;;;25.90;53.50;;;;;;5037428;28;82402;-42
2023/08/26 03:09:43;;;;;;;;;;;25.90;53.50;;;;;;5038482;28;83908;-42
2023/08/26 03:12:08;;;;;;;;;;;25.90;53.50;;;;;;5038396;28;81921;-42
2023/08/26 03:14:34;;;;;;;;;;;25.90;53.50;;;;;;5038040;27;82340;-42
2023/08/26 03:16:59;;;;;;;;;;;25.90;53.40;;;;;;5038539;28;83134;-42
2023/08/26 03:19:25;;;;;;;;;;;25.90;53.40;;;;;;5039762;28;82065;-42
2023/08/26 03:21:51;;;;;;;;;;;25.90;53.40;;;;;;5039599;28;82149;-43
2023/08/26 03:24:16;;;;;;;;;;;25.80;53.40;;;;;;5036704;28;82098;-42
2023/08/26 03:26:42;;;;;;;;;;;25.80;53.40;;;;;;5039703;28;82362;-43
2023/08/26 03:29:08;;;;;;;;;;;25.80;53.40;;;;;;5037257;28;82475;-42
2023/08/26 03:31:33;;;;;;;;;;;25.80;53.40;;;;;;5036995;28;83456;-42
2023/08/26 03:33:59;;;;;;;;;;;25.80;53.40;;;;;;5037651;28;82931;-42
2023/08/26 03:36:24;;;;;;;;;;;25.80;53.40;;;;;;5036813;28;82266;-42
2023/08/26 03:38:50;;;;;;;;;;;25.80;53.40;;;;;;5041865;28;82085;-44
2023/08/26 03:41:15;;;;;;;;;;;25.70;53.30;;;;;;5036275;28;81850;-43
2023/08/26 03:43:41;;;;;;;;;;;25.70;53.40;;;;;;5039556;28;82948;-43
2023/08/26 03:46:06;;;;;;;;;;;25.70;53.50;;;;;;5035249;28;82495;-42
2023/08/26 03:48:32;;;;;;;;;;;25.70;53.40;;;;;;5036565;28;82909;-44
2023/08/26 03:50:57;;;;;;;;;;;25.70;53.50;;;;;;5038401;28;81438;-42
2023/08/26 03:53:23;;;;;;;;;;;25.70;53.50;;;;;;5037225;28;82861;-42
2023/08/26 03:55:49;;;;;;;;;;;25.70;53.50;;;;;;5036942;28;82951;-42
2023/08/26 03:58:15;;;;;;;;;;;25.70;53.50;;;;;;5038138;28;83028;-42
2023/08/26 04:00:40;;;;;;;;;;;25.60;53.40;;;;;;5035372;28;83243;-42
2023/08/26 04:03:06;;;;;;;;;;;25.60;53.50;;;;;;5039287;28;82506;-42
2023/08/26 04:05:32;;;;;;;;;;;25.60;53.50;;;;;;5036033;28;82815;-42
2023/08/26 04:07:59;;;;;;;;;;;25.60;53.50;;;;;;5038156;28;82018;-42
2023/08/26 04:10:24;;;;;;;;;;;25.60;53.50;;;;;;5036586;27;82421;-43
2023/08/26 04:12:50;;;;;;;;;;;25.60;53.50;;;;;;5037253;27;82498;-42
2023/08/26 04:15:15;;;;;;;;;;;25.60;53.50;;;;;;5038294;28;82542;-42
2023/08/26 04:17:41;;;;;;;;;;;25.60;53.50;;;;;;5035139;28;82045;-43
2023/08/26 04:20:07;;;;;;;;;;;25.50;53.50;;;;;;5039054;28;82403;-42
2023/08/26 04:22:33;;;;;;;;;;;25.50;53.50;;;;;;5033424;28;84091;-42
2023/08/26 04:24:58;;;;;;;;;;;25.50;53.50;;;;;;5038237;28;83243;-42
2023/08/26 04:27:24;;;;;;;;;;;25.50;53.50;;;;;;5036287;28;82979;-42
2023/08/26 04:29:49;;;;;;;;;;;25.50;53.50;;;;;;5037434;28;82022;-42
2023/08/26 04:32:15;;;;;;;;;;;25.50;53.60;;;;;;5036823;28;82517;-42
2023/08/26 04:34:40;;;;;;;;;;;25.50;53.50;;;;;;5036120;28;82161;-42
2023/08/26 04:37:06;;;;;;;;;;;25.50;53.50;;;;;;5038144;28;82097;-42
2023/08/26 04:39:31;;;;;;;;;;;25.40;53.50;;;;;;5035894;28;82526;-43
2023/08/26 04:41:57;;;;;;;;;;;25.40;53.50;;;;;;5038466;28;83007;-42
2023/08/26 04:44:24;;;;;;;;;;;25.40;53.50;;;;;;5038398;28;82082;-42
2023/08/26 04:46:53;;;;;;;;;;;25.40;53.50;;;;;;5037496;28;84460;-42
2023/08/26 04:49:18;;;;;;;;;;;25.40;53.60;;;;;;5036743;28;81965;-42
2023/08/26 04:51:54;;;;;;;;;;;25.40;53.60;;;;;;5036062;28;82993;-42
2023/08/26 04:54:19;;;;;;;;;;;25.40;53.60;;;;;;5031364;28;83115;-43
2023/08/26 04:56:45;;;;;;;;;;;25.40;53.60;;;;;;5037876;28;82017;-42
2023/08/26 04:59:11;;;;;;;;;;;25.30;53.50;;;;;;5035908;28;82784;-42
2023/08/26 05:01:36;;;;;;;;;;;25.30;53.60;;;;;;5034292;28;82999;-42
2023/08/26 05:04:02;;;;;;;;;;;25.30;53.60;;;;;;5036610;28;81195;-43
2023/08/26 05:06:27;;;;;;;;;;;25.30;53.60;;;;;;5039907;28;81979;-42
2023/08/26 05:08:53;;;;;;;;;;;25.30;53.70;;;;;;5035224;28;81951;-42
2023/08/26 05:11:18;;;;;;;;;;;25.30;53.70;;;;;;5037740;28;82832;-43
2023/08/26 05:13:44;;;;;;;;;;;25.30;53.70;;;;;;5034699;28;83093;-42
2023/08/26 05:16:09;;;;;;;;;;;25.30;53.70;;;;;;5037571;28;81936;-42
2023/08/26 05:18:35;;;;;;;;;;;25.30;53.70;;;;;;5035006;28;81943;-42
2023/08/26 05:21:00;;;;;;;;;;;25.30;53.70;;;;;;5036152;28;83059;-42
2023/08/26 05:23:27;;;;;;;;;;;25.30;53.70;;;;;;5035690;28;82402;-43
2023/08/26 05:25:52;;;;;;;;;;;25.30;53.70;;;;;;5035553;27;82736;-42
2023/08/26 05:28:18;;;;;;;;;;;25.20;53.70;;;;;;5040703;28;81609;-42
2023/08/26 05:30:43;;;;;;;;;;;25.30;53.80;;;;;;5034252;28;82012;-42
2023/08/26 05:33:09;;;;;;;;;;;25.30;53.70;;;;;;5030470;28;83202;-42
2023/08/26 05:35:34;;;;;;;;;;;25.20;53.70;;;;;;5033910;28;83048;-43
2023/08/26 05:38:00;;;;;;;;;;;25.30;53.70;;;;;;5036838;28;83573;-42
2023/08/26 05:40:29;;;;;;;;;;;25.30;53.70;;;;;;5035018;28;82878;-43
2023/08/26 05:42:55;;;;;;;;;;;25.20;53.70;;;;;;5035056;28;82083;-43
2023/08/26 05:45:20;;;;;;;;;;;25.20;53.70;;;;;;5037167;28;82495;-42
2023/08/26 05:47:46;;;;;;;;;;;25.20;53.70;;;;;;5032278;28;83110;-43
2023/08/26 05:50:11;;;;;;;;;;;25.20;53.80;;;;;;5033750;28;82402;-44
2023/08/26 05:52:37;;;;;;;;;;;25.30;53.80;;;;;;5037687;28;82214;-43
2023/08/26 05:55:03;;;;;;;;;;;25.30;53.90;;;;;;5034698;28;82179;-42
2023/08/26 05:57:28;;;;;;;;;;;25.20;53.80;;;;;;5036335;28;83049;-43
2023/08/26 05:59:54;;;;;;;;;;;25.20;53.80;;;;;;5034421;28;84088;-42
2023/08/26 06:02:19;;;;;;;;;;;25.20;53.90;;;;;;5033124;28;82040;-43
2023/08/26 06:04:45;;;;;;;;;;;25.20;53.80;;;;;;5036748;28;82048;-42
2023/08/26 06:07:10;;;;;;;;;;;25.20;53.80;;;;;;5034131;28;82208;-42
2023/08/26 06:09:36;;;;;;;;;;;25.20;53.90;;;;;;5040107;28;82475;-42
2023/08/26 06:12:01;;;;;;;;;;;25.20;53.90;;;;;;5033670;28;82792;-42
2023/08/26 06:14:27;;;;;;;;;;;25.20;53.90;;;;;;5036460;28;82032;-42
2023/08/26 06:16:53;;;;;;;;;;;25.20;53.80;;;;;;5035632;28;82405;-45
2023/08/26 06:19:18;;;;;;;;;;;25.20;53.90;;;;;;5030841;28;84585;-42
2023/08/26 06:21:44;;;;;;;;;;;25.20;54.50;;;;;;5035667;28;82076;-42
2023/08/26 06:24:09;;;;;;;;;;;25.20;53.90;;;;;;5033895;28;83088;-42
2023/08/26 06:26:35;;;;;;;;;;;25.20;53.90;;;;;;5036670;28;83141;-42
2023/08/26 06:29:00;;;;;;;;;;;25.20;53.90;;;;;;5033285;28;82164;-42
2023/08/26 06:31:26;;;;;;;;;;;25.30;53.90;;;;;;5039083;28;81933;-43
2023/08/26 06:33:51;;;;;;;;;;;25.20;54.00;;;;;;5035639;28;82449;-42
2023/08/26 06:36:17;;;;;;;;;;;25.20;54.00;;;;;;5039379;28;82428;-42
2023/08/26 06:38:42;;;;;;;;;;;25.20;54.00;;;;;;5034663;28;88090;-43
2023/08/26 06:41:08;;;;;;;;;;;25.20;54.00;;;;;;5035598;28;86415;-44
2023/08/26 06:43:33;;;;;;;;;;;25.20;54.00;;;;;;5035742;28;87313;-43
2023/08/26 06:45:59;;;;;;;;;;;25.20;54.00;;;;;;5033630;28;88117;-43
2023/08/26 06:48:24;;;;;;;;;;;25.30;54.00;;;;;;5036639;28;87989;-43
2023/08/26 06:50:50;;;;;;;;;;;25.20;54.10;;;;;;5033081;27;88245;-44
2023/08/26 06:53:21;;;;;;;;;;;25.20;54.00;;;;;;5039250;28;88123;-42
2023/08/26 06:55:47;;;;;;;;;;;25.30;54.10;;;;;;5034880;28;89119;-43
2023/08/26 06:58:13;;;;;;;;;;;25.20;54.10;;;;;;5034000;28;89427;-43
2023/08/26 07:00:38;;;;;;;;;;;25.30;54.10;;;;;;5035054;28;87171;-43
2023/08/26 07:03:04;;;;;;;;;;;25.30;54.10;;;;;;5033107;28;87662;-44
2023/08/26 07:05:29;;;;;;;;;;;25.30;54.10;;;;;;5037110;28;87232;-42
2023/08/26 07:07:55;;;;;;;;;;;25.30;54.20;;;;;;5033309;28;87581;-43
2023/08/26 07:10:21;;;;;;;;;;;25.30;54.20;;;;;;5035929;28;87380;-43
2023/08/26 07:12:46;;;;;;;;;;;25.20;54.20;;;;;;5033221;28;87915;-43
2023/08/26 07:15:12;;;;;;;;;;;25.20;54.20;;;;;;5038240;28;87156;-43
2023/08/26 07:17:37;;;;;;;;;;;25.20;54.10;;;;;;5034628;28;87891;-43
2023/08/26 07:20:03;;;;;;;;;;;25.20;54.90;;;;;;5033402;28;87582;-43
2023/08/26 07:22:28;;;;;;;;;;;25.20;54.20;;;;;;5036115;28;87494;-43
2023/08/26 07:24:54;;;;;;;;;;;25.20;54.20;;;;;;5032648;28;88144;-43
2023/08/26 07:27:19;;;;;;;;;;;25.20;54.20;;;;;;5036289;28;87116;-43
2023/08/26 07:29:45;;;;;;;;;;;25.30;54.20;;;;;;5033805;28;87460;-44
2023/08/26 07:32:10;;;;;;;;;;;25.30;54.20;;;;;;5034552;28;87588;-43
2023/08/26 07:34:36;;;;;;;;;;;25.30;54.30;;;;;;5033140;28;87088;-43
2023/08/26 07:37:02;;;;;;;;;;;25.30;54.30;;;;;;5036140;28;88714;-43
2023/08/26 07:39:28;;;;;;;;;;;25.30;54.20;;;;;;5035026;28;87098;-44
2023/08/26 07:41:54;;;;;;;;;;;25.30;54.20;;;;;;5033338;27;87417;-43
2023/08/26 07:44:20;;;;;;;;;;;25.30;54.30;;;;;;5035256;28;88295;-43
2023/08/26 07:46:46;;;;;;;;;;;25.30;54.30;;;;;;5028408;28;87032;-45
2023/08/26 07:49:12;;;;;;;;;;;25.30;54.30;;;;;;5034510;28;88905;-43
2023/08/26 07:51:37;;;;;;;;;;;25.30;54.20;;;;;;5033388;28;88079;-43
2023/08/26 07:54:03;;;;;;;;;;;25.30;54.30;;;;;;5035096;28;86399;-44
2023/08/26 07:56:29;;;;;;;;;;;25.30;54.40;;;;;;5037280;28;87029;-43
2023/08/26 07:58:54;;;;;;;;;;;25.30;54.30;;;;;;5033344;28;87118;-43
2023/08/26 08:01:20;;;;;;;;;;;25.30;54.30;;;;;;5034775;28;87989;-43
2023/08/26 08:03:45;;;;;;;;;;;25.30;54.30;;;;;;5031253;28;88329;-43
2023/08/26 08:06:11;;;;;;;;;;;25.30;54.20;;;;;;5031857;28;86935;-43
2023/08/26 08:08:37;;;;;;;;;;;25.30;54.30;;;;;;5035638;28;87112;-43
2023/08/26 08:11:03;;;;;;;;;;;25.30;54.20;;;;;;5032984;28;86983;-43
2023/08/26 08:13:29;;;;;;;;;;;25.30;54.20;;;;;;5034211;28;87479;-43
2023/08/26 08:15:54;;;;;;;;;;;25.30;54.30;;;;;;5034365;28;87066;-43
2023/08/26 08:18:20;;;;;;;;;;;25.30;54.20;;;;;;5036205;28;87420;-43
2023/08/26 08:20:45;;;;;;;;;;;25.30;54.20;;;;;;5033392;28;87179;-43
2023/08/26 08:23:11;;;;;;;;;;;25.40;54.20;;;;;;5031833;28;88161;-43
2023/08/26 08:25:36;;;;;;;;;;;25.40;54.20;;;;;;5026439;28;88095;-42
2023/08/26 08:28:02;;;;;;;;;;;25.40;57.20;;;;;;5034825;28;88466;-44
2023/08/26 08:30:28;;;;;;;;;;;25.40;58.20;;;;;;5032307;28;88105;-47
2023/08/26 08:32:53;;;;;;;;;;;25.50;59.40;;;;;;5033919;28;87170;-47
2023/08/26 08:35:19;;;;;;;;;;;25.50;58.90;;;;;;5030457;28;87832;-45
2023/08/26 08:37:44;;;;;;;;;;;25.60;59.70;;;;;;5033886;28;87905;-41
2023/08/26 08:40:10;;;;;;;;;;;25.60;59.10;;;;;;5035410;28;87135;-43
2023/08/26 08:42:39;;;;;;;;;;;25.60;59.10;;;;;;5035282;28;86907;-47
2023/08/26 08:45:06;;;;;;;;;;;25.70;59.40;;;;;;5028478;28;87115;-46
2023/08/26 08:47:31;;;;;;;;;;;25.80;58.70;;;;;;5033872;28;88079;-43
2023/08/26 08:49:58;;;;;;;;;;;25.80;59.60;;;;;;5031873;28;88444;-44
2023/08/26 08:52:23;;;;;;;;;;;25.90;60.30;;;;;;5032921;28;87092;-47
2023/08/26 08:54:49;;;;;;;;;;;25.90;60.40;;;;;;5034099;28;86991;-51
2023/08/26 08:57:17;;;;;;;;;;;25.90;60.20;;;;;;5031520;27;87863;-46
2023/08/26 08:59:43;;;;;;;;;;;26.00;60.30;;;;;;5033986;28;87277;-41
2023/08/26 09:02:09;;;;;;;;;;;26.10;59.90;;;;;;5034545;28;86992;-43
2023/08/26 09:04:35;;;;;;;;;;;26.10;59.60;;;;;;5035041;28;87613;-46
2023/08/26 09:07:03;;;;;;;;;;;26.10;58.60;;;;;;5033136;27;86446;-46
2023/08/26 09:09:28;;;;;;;;;;;26.20;58.00;;;;;;5031911;28;88008;-45
2023/08/26 09:11:54;;;;;;;;;;;26.20;58.20;;;;;;5033985;28;87205;-48
2023/08/26 09:14:19;;;;;;;;;;;26.20;58.00;;;;;;5030967;28;88055;-48
2023/08/26 09:16:45;;;;;;;;;;;26.30;57.40;;;;;;5034162;28;88145;-45
2023/08/26 09:19:11;;;;;;;;;;;26.20;56.10;;;;;;5031376;28;87157;-44
2023/08/26 09:21:41;;;;;;;;;;;26.20;56.80;;;;;;5033258;28;87792;-46
2023/08/26 09:24:10;;;;;;;;;;;26.30;56.90;;;;;;5035482;28;88431;-45
2023/08/26 09:26:35;;;;;;;;;;;26.40;57.10;;;;;;5031718;27;87446;-47
2023/08/26 09:29:01;;;;;;;;;;;26.40;56.90;;;;;;5033767;28;87963;-46
2023/08/26 09:31:26;;;;;;;;;;;26.50;57.00;;;;;;5031057;28;86437;-48
2023/08/26 09:34:01;;;;;;;;;;;26.40;56.60;;;;;;5034212;28;87097;-47
2023/08/26 09:36:48;;;;;;;;;;;26.50;56.30;;;;;;5031919;28;88176;-44
2023/08/26 09:39:14;;;;;;;;;;;26.50;56.20;;;;;;5029393;28;88017;-48
2023/08/26 09:41:43;;;;;;;;;;;26.60;55.60;;;;;;5032146;27;89840;-43
2023/08/26 09:44:10;;;;;;;;;;;26.60;55.10;;;;;;5033276;28;88111;-50
2023/08/26 09:46:36;;;;;;;;;;;26.70;55.30;;;;;;5033324;28;87074;-47
2023/08/26 09:49:02;;;;;;;;;;;26.70;55.40;;;;;;5033305;28;89427;-45
2023/08/26 09:51:29;;;;;;;;;;;26.70;55.10;;;;;;5029410;28;87120;-46
2023/08/26 09:53:55;;;;;;;;;;;26.70;55.20;;;;;;5031958;28;88811;-42
2023/08/26 09:56:25;;;;;;;;;;;26.70;55.60;;;;;;5032026;28;87373;-44
2023/08/26 09:58:54;;;;;;;;;;;26.70;55.20;;;;;;5033184;28;87137;-48
2023/08/26 10:01:20;;;;;;;;;;;26.80;53.80;;;;;;5026224;28;87466;-44
2023/08/26 10:03:48;;;;;;;;;;;26.80;52.90;;;;;;5032510;28;88066;-47
2023/08/26 10:06:16;;;;;;;;;;;26.80;53.30;;;;;;5031864;28;87111;-49
2023/08/26 10:08:41;;;;;;;;;;;26.90;52.50;;;;;;5030983;27;88173;-46
2023/08/26 10:11:07;;;;;;;;;;;27.00;52.90;;;;;;5033097;28;87134;-45
2023/08/26 10:13:35;;;;;;;;;;;26.90;54.10;;;;;;5030710;27;87476;-43
2023/08/26 10:16:01;;;;;;;;;;;27.00;54.20;;;;;;5025949;28;88106;-45
2023/08/26 10:18:48;;;;;;;;;;;27.00;54.00;;;;;;5032894;28;87156;-45
2023/08/26 10:21:14;;;;;;;;;;;27.00;54.00;;;;;;5021254;28;87482;-58
2023/08/26 10:23:40;;;;;;;;;;;27.00;54.20;;;;;;5032672;28;87107;-48
2023/08/26 10:26:06;;;;;;;;;;;27.00;54.30;;;;;;5031091;28;87102;-44
2023/08/26 10:28:32;;;;;;;;;;;27.00;54.00;;;;;;5034011;27;87974;-48
2023/08/26 10:30:57;;;;;;;;;;;27.00;54.10;;;;;;5031806;28;87199;-49
2023/08/26 10:33:23;;;;;;;;;;;26.90;53.90;;;;;;5031113;28;87261;-44
2023/08/26 10:35:58;;;;;;;;;;;27.00;54.00;;;;;;5031395;28;87781;-46
2023/08/26 10:38:24;;;;;;;;;;;27.10;54.00;;;;;;5026683;28;87096;-44
2023/08/26 10:41:06;;;;;;;;;;;27.10;53.00;;;;;;5030890;28;87011;-43
2023/08/26 10:43:32;;;;;;;;;;;27.10;53.10;;;;;;5027167;28;88203;-45
2023/08/26 10:45:58;;;;;;;;;;;27.20;52.80;;;;;;5030528;28;86695;-42
2023/08/26 10:48:24;;;;;;;;;;;27.30;52.60;;;;;;5030820;28;87018;-40
2023/08/26 10:50:59;;;;;;;;;;;27.20;52.40;;;;;;5030319;28;87165;-44
2023/08/26 10:53:24;;;;;;;;;;;27.20;52.20;;;;;;5027953;28;89231;-43
2023/08/26 10:55:54;;;;;;;;;;;27.20;51.80;;;;;;5032440;28;87301;-43
2023/08/26 10:58:20;;;;;;;;;;;27.20;52.40;;;;;;5030909;28;87203;-47
2023/08/26 11:00:46;;;;;;;;;;;27.30;53.10;;;;;;5030240;28;87544;-46
2023/08/26 11:03:13;;;;;;;;;;;27.40;52.10;;;;;;5030618;28;89241;-49
2023/08/26 11:05:41;;;;;;;;;;;27.40;52.00;;;;;;5029437;28;87052;-45
2023/08/26 11:08:07;;;;;;;;;;;27.40;52.10;;;;;;5032538;28;87525;-47
2023/08/26 11:10:33;;;;;;;;;;;27.50;51.30;;;;;;5029219;28;88848;-42
2023/08/26 11:12:59;;;;;;;;;;;27.50;51.30;;;;;;5034275;28;86979;-47
2023/08/26 11:15:30;;;;;;;;;;;27.40;50.70;;;;;;5030682;28;87237;-49
2023/08/26 11:17:55;;;;;;;;;;;27.50;50.50;;;;;;5029175;28;87999;-43
2023/08/26 11:20:21;;;;;;;;;;;27.50;51.10;;;;;;5032570;28;88407;-42
2023/08/26 11:22:46;;;;;;;;;;;27.50;51.20;;;;;;5031307;28;87972;-44
2023/08/26 11:25:13;;;;;;;;;;;27.50;51.20;;;;;;5035351;28;87157;-50
2023/08/26 11:27:39;;;;;;;;;;;27.60;51.60;;;;;;5032856;28;88792;-45
2023/08/26 11:30:06;;;;;;;;;;;27.60;52.00;;;;;;5034243;28;87254;-49
2023/08/26 11:32:31;;;;;;;;;;;27.70;51.90;;;;;;5033390;28;87343;-43
2023/08/26 11:34:57;;;;;;;;;;;27.70;51.80;;;;;;5036692;28;87533;-50
2023/08/26 11:37:22;;;;;;;;;;;27.80;52.00;;;;;;5034716;28;87163;-44
2023/08/26 11:39:48;;;;;;;;;;;27.80;50.00;;;;;;5032133;28;87789;-49
2023/08/26 11:42:14;;;;;;;;;;;27.80;50.10;;;;;;5034154;28;88555;-50
2023/08/26 11:44:39;;;;;;;;;;;27.90;50.90;;;;;;5032501;28;87386;-44
2023/08/26 11:47:07;;;;;;;;;;;27.90;50.20;;;;;;5035205;28;87485;-48
2023/08/26 11:49:32;;;;;;;;;;;27.90;50.80;;;;;;5033555;28;89515;-53
2023/08/26 11:51:59;;;;;;;;;;;28.00;50.00;;;;;;5033653;28;87283;-50
2023/08/26 11:54:25;;;;;;;;;;;28.00;49.90;;;;;;5033541;28;87530;-50
2023/08/26 11:56:51;;;;;;;;;;;28.00;49.40;;;;;;5035388;28;87446;-57
2023/08/26 11:59:20;;;;;;;;;;;28.00;48.90;;;;;;5032100;28;89064;-56
2023/08/26 12:01:46;;;;;;;;;;;28.10;49.50;;;;;;5034723;28;88083;-48
2023/08/26 12:04:13;;;;;;;;;;;28.10;48.10;;;;;;5033515;28;87116;-58
2023/08/26 12:06:38;;;;;;;;;;;28.10;49.30;;;;;;5028763;27;88020;-49
2023/08/26 12:09:04;;;;;;;;;;;28.20;49.30;;;;;;5030587;28;87924;-50
2023/08/26 12:11:38;;;;;;;;;;;28.20;47.90;;;;;;5034468;28;87086;-46
2023/08/26 12:14:19;;;;;;;;;;;28.20;48.50;;;;;;5029167;28;87200;-44
2023/08/26 12:16:45;;;;;;;;;;;28.20;48.60;;;;;;5034823;28;88149;-53
2023/08/26 12:19:16;;;;;;;;;;;28.20;48.90;;;;;;5034917;28;88795;-48
2023/08/26 12:21:42;;;;;;;;;;;28.30;48.50;;;;;;5032223;28;87854;-45
2023/08/26 12:24:08;;;;;;;;;;;28.40;48.40;;;;;;5028594;28;86367;-49
2023/08/26 12:26:36;;;;;;;;;;;28.30;48.50;;;;;;5032227;27;87251;-44
2023/08/26 12:29:02;;;;;;;;;;;28.40;47.90;;;;;;5033813;28;88544;-50
2023/08/26 12:31:28;;;;;;;;;;;28.40;48.30;;;;;;5029682;28;88504;-46
2023/08/26 12:33:53;;;;;;;;;;;28.40;48.60;;;;;;5035169;28;87509;-45
2023/08/26 12:36:19;;;;;;;;;;;28.40;47.90;;;;;;5031868;28;88102;-55
2023/08/26 12:38:44;;;;;;;;;;;28.50;48.00;;;;;;5032137;28;88441;-48
2023/08/26 12:41:10;;;;;;;;;;;28.50;47.50;;;;;;5032863;28;88040;-55
2023/08/26 12:43:35;;;;;;;;;;;28.60;46.90;;;;;;5032789;28;87209;-48
2023/08/26 12:46:01;;;;;;;;;;;28.60;47.40;;;;;;5034119;28;87433;-56
2023/08/26 12:48:27;;;;;;;;;;;28.60;47.70;;;;;;5032354;28;87552;-54
2023/08/26 12:50:52;;;;;;;;;;;28.60;47.70;;;;;;5034554;28;87176;-46
2023/08/26 12:53:18;;;;;;;;;;;28.60;48.40;;;;;;5030015;28;87534;-54
2023/08/26 12:55:43;;;;;;;;;;;28.70;48.00;;;;;;5032268;28;89043;-47
2023/08/26 12:58:16;;;;;;;;;;;28.80;48.10;;;;;;5032035;28;87117;-47
2023/08/26 13:00:42;;;;;;;;;;;28.70;48.10;;;;;;5034225;28;87561;-46
2023/08/26 13:03:07;;;;;;;;;;;28.70;47.70;;;;;;5033325;28;87649;-45
2023/08/26 13:05:33;;;;;;;;;;;28.80;48.10;;;;;;5031731;28;87431;-50
2023/08/26 13:07:59;;;;;;;;;;;28.70;47.40;;;;;;5034184;28;88178;-57
2023/08/26 13:10:24;;;;;;;;;;;28.70;48.00;;;;;;5032012;28;87082;-51
2023/08/26 13:12:50;;;;;;;;;;;28.70;47.30;;;;;;5034553;28;87407;-46
2023/08/26 13:15:15;;;;;;;;;;;28.70;47.70;;;;;;5031462;28;87275;-52
2023/08/26 13:17:41;;;;;;;;;;;28.70;47.00;;;;;;5032432;28;87002;-47
2023/08/26 13:20:09;;;;;;;;;;;28.70;47.10;;;;;;5031868;28;88023;-49
2023/08/26 13:22:34;;;;;;;;;;;28.70;47.30;;;;;;5033868;28;88951;-48
2023/08/26 13:25:00;;;;;;;;;;;28.80;46.30;;;;;;5035388;28;87472;-50
2023/08/26 13:27:25;;;;;;;;;;;28.80;46.50;;;;;;5026594;28;87668;-53
2023/08/26 13:29:51;;;;;;;;;;;28.80;46.20;;;;;;5033434;28;87008;-55
2023/08/26 13:32:16;;;;;;;;;;;28.90;46.70;;;;;;5031429;28;87524;-48
2023/08/26 13:34:42;;;;;;;;;;;28.90;46.20;;;;;;5031744;28;87844;-51
2023/08/26 13:37:07;;;;;;;;;;;28.90;45.60;;;;;;5032710;28;86561;-51
2023/08/26 13:39:33;;;;;;;;;;;28.90;45.10;;;;;;5030995;28;87091;-51
2023/08/26 13:41:58;;;;;;;;;;;28.90;45.10;;;;;;5030652;28;88518;-52
2023/08/26 13:44:24;;;;;;;;;;;29.00;44.50;;;;;;5034364;28;88390;-48
2023/08/26 13:46:49;;;;;;;;;;;29.00;43.10;;;;;;5029385;28;88009;-50
2023/08/26 13:49:15;;;;;;;;;;;29.10;43.00;;;;;;5028188;28;87835;-49
2023/08/26 13:51:41;;;;;;;;;;;29.00;43.20;;;;;;5032783;28;88910;-53
2023/08/26 13:54:06;;;;;;;;;;;29.10;43.10;;;;;;5029994;28;88157;-49
2023/08/26 13:56:32;;;;;;;;;;;29.10;43.80;;;;;;5032167;28;87002;-45
2023/08/26 13:59:00;;;;;;;;;;;29.00;44.00;;;;;;5031889;28;87543;-45
2023/08/26 14:01:28;;;;;;;;;;;29.00;44.30;;;;;;5029704;27;88565;-45
2023/08/26 14:03:54;;;;;;;;;;;29.00;44.70;;;;;;5036403;28;87137;-47
2023/08/26 14:06:19;;;;;;;;;;;29.00;44.90;;;;;;5030610;28;87915;-45
2023/08/26 14:08:45;;;;;;;;;;;29.00;45.20;;;;;;5032489;28;88119;-47
2023/08/26 14:11:10;;;;;;;;;;;29.00;45.30;;;;;;5030767;28;88312;-48